Time;durP1;ratioP1;P1;durP2;ratioP2;P2;SDS_P1;SDS_P2;PMS_P1;PMS_P2;Temp;Humidity;BMP_temperature;BMP_pressure;BME280_temperature;BME280_humidity;BME280_pressure;Samples;Min_cycle;Max_cycle;Signal;HPM_P1;HPM_P2
2023/12/12 00:01:33;;;;;;;12.93;3.90;;;;;;;;;;5037397;28;20043;-93
2023/12/12 00:03:59;;;;;;;14.60;4.10;;;;;;;;;;5046673;28;20599;-93
2023/12/12 00:06:24;;;;;;;18.40;4.10;;;;;;;;;;5034429;28;20101;-93
2023/12/12 00:08:49;;;;;;;25.13;4.60;;;;;;;;;;5034421;28;20041;-93
2023/12/12 00:11:15;;;;;;;17.10;4.63;;;;;;;;;;5032938;28;20036;-94
2023/12/12 00:13:40;;;;;;;15.93;4.10;;;;;;;;;;5049105;28;20060;-93
2023/12/12 00:16:06;;;;;;;15.73;4.80;;;;;;;;;;5053447;28;20021;-92
2023/12/12 00:18:35;;;;;;;16.30;4.33;;;;;;;;;;5059996;28;20013;-95
2023/12/12 00:21:01;;;;;;;21.90;4.60;;;;;;;;;;5074821;28;20004;-96
2023/12/12 00:23:27;;;;;;;19.95;4.70;;;;;;;;;;5115410;22;20048;-96
2023/12/12 00:25:52;;;;;;;21.30;5.27;;;;;;;;;;5056279;28;20020;-96
2023/12/12 00:28:20;;;;;;;31.90;4.93;;;;;;;;;;5065592;28;20033;-96
2023/12/12 00:30:45;;;;;;;17.67;4.27;;;;;;;;;;5056678;28;20045;-96
2023/12/12 00:33:11;;;;;;;25.27;4.97;;;;;;;;;;5035833;28;20052;-96
2023/12/12 00:35:36;;;;;;;18.93;4.43;;;;;;;;;;5052799;28;20047;-96
2023/12/12 00:38:04;;;;;;;16.00;4.40;;;;;;;;;;5033984;28;20030;-96
2023/12/12 00:40:29;;;;;;;22.80;4.43;;;;;;;;;;5050619;28;20001;-96
2023/12/12 00:43:00;;;;;;;15.87;4.80;;;;;;;;;;5048780;28;20026;-96
2023/12/12 00:48:28;;;;;;;16.02;4.28;;;;;;;;;;5035404;28;20041;-96
2023/12/12 00:50:55;;;;;;;18.13;4.30;;;;;;;;;;5035039;28;20047;-95
2023/12/12 00:53:22;;;;;;;19.33;3.92;;;;;;;;;;5047812;28;20089;-96
2023/12/12 00:55:50;;;;;;;18.88;3.83;;;;;;;;;;5054924;28;20025;-96
2023/12/12 00:58:15;;;;;;;17.75;4.32;;;;;;;;;;5036306;28;20014;-96
2023/12/12 01:00:41;;;;;;;20.47;4.00;;;;;;;;;;5054838;28;20021;-96
2023/12/12 01:06:03;;;;;;;14.60;4.32;;;;;;;;;;5035570;28;20030;-96
2023/12/12 01:08:28;;;;;;;16.70;4.10;;;;;;;;;;5017119;28;20032;-96
2023/12/12 01:10:54;;;;;;;24.20;4.07;;;;;;;;;;5035727;28;20021;-96
2023/12/12 01:13:19;;;;;;;27.33;4.37;;;;;;;;;;5035167;28;20433;-96
2023/12/12 01:15:44;;;;;;;17.92;5.20;;;;;;;;;;5035756;28;20045;-96
2023/12/12 01:18:10;;;;;;;18.57;4.47;;;;;;;;;;5034511;28;20018;-95
2023/12/12 01:23:51;;;;;;;18.95;3.88;;;;;;;;;;5040723;28;20052;-96
2023/12/12 01:26:17;;;;;;;20.73;4.15;;;;;;;;;;5056451;28;20017;-96
2023/12/12 01:28:42;;;;;;;18.63;3.95;;;;;;;;;;5054463;28;20032;-96
2023/12/12 01:31:08;;;;;;;28.90;4.60;;;;;;;;;;5054481;28;20009;-96
2023/12/12 01:33:33;;;;;;;21.33;4.07;;;;;;;;;;5054326;28;20025;-96
2023/12/12 01:36:01;;;;;;;16.13;4.20;;;;;;;;;;5054409;28;20458;-96
2023/12/12 01:38:26;;;;;;;25.65;4.45;;;;;;;;;;5058656;28;20017;-96
2023/12/12 01:40:53;;;;;;;20.17;4.57;;;;;;;;;;5058531;28;20089;-96
2023/12/12 01:43:25;;;;;;;30.15;5.03;;;;;;;;;;5041252;28;20069;-95
2023/12/12 01:45:53;;;;;;;22.15;4.20;;;;;;;;;;5041861;28;20026;-96
2023/12/12 01:48:20;;;;;;;21.17;4.38;;;;;;;;;;5041399;28;20021;-96
2023/12/12 01:50:45;;;;;;;22.58;4.80;;;;;;;;;;5058186;28;20025;-96
2023/12/12 01:53:12;;;;;;;21.23;5.00;;;;;;;;;;5058376;28;20009;-96
2023/12/12 01:55:38;;;;;;;18.95;5.15;;;;;;;;;;5041072;28;20036;-95
2023/12/12 01:58:03;;;;;;;22.30;5.40;;;;;;;;;;5058093;28;20016;-96
2023/12/12 02:00:29;;;;;;;31.33;6.20;;;;;;;;;;5058173;28;20013;-96
2023/12/12 02:02:57;;;;;;;37.83;6.50;;;;;;;;;;5055026;28;20029;-96
2023/12/12 02:05:23;;;;;;;28.10;5.78;;;;;;;;;;5038102;28;20025;-96
2023/12/12 02:07:50;;;;;;;27.17;4.93;;;;;;;;;;5049667;28;20021;-96
2023/12/12 02:10:16;;;;;;;24.15;5.13;;;;;;;;;;5037049;28;20081;-95
2023/12/12 02:12:42;;;;;;;31.70;4.95;;;;;;;;;;5056292;28;20073;-96
2023/12/12 02:15:07;;;;;;;28.37;4.10;;;;;;;;;;5038061;28;20010;-96
2023/12/12 02:17:33;;;;;;;33.17;4.78;;;;;;;;;;5037467;28;20017;-96
2023/12/12 02:19:58;;;;;;;16.23;3.57;;;;;;;;;;5043689;28;20057;-96
2023/12/12 02:22:24;;;;;;;31.93;3.90;;;;;;;;;;5056612;28;20112;-96
2023/12/12 02:24:49;;;;;;;22.27;3.77;;;;;;;;;;5040584;28;20014;-95
2023/12/12 02:27:15;;;;;;;32.30;4.40;;;;;;;;;;5053828;28;20379;-96
2023/12/12 02:29:40;;;;;;;31.40;4.43;;;;;;;;;;5051016;28;20048;-96
2023/12/12 02:32:05;;;;;;;24.77;4.27;;;;;;;;;;5050533;28;20044;-96
2023/12/12 02:34:31;;;;;;;25.92;4.22;;;;;;;;;;5050395;28;20029;-96
2023/12/12 02:36:56;;;;;;;39.40;4.60;;;;;;;;;;5019616;28;20037;-96
2023/12/12 02:39:22;;;;;;;28.17;4.07;;;;;;;;;;5030749;28;20009;-96
2023/12/12 02:41:47;;;;;;;28.00;4.53;;;;;;;;;;5032330;28;20022;-96
2023/12/12 02:44:13;;;;;;;30.73;4.50;;;;;;;;;;5034395;28;20293;-95
2023/12/12 02:46:39;;;;;;;29.00;4.87;;;;;;;;;;5027821;28;20081;-95
2023/12/12 02:49:05;;;;;;;30.23;5.57;;;;;;;;;;5018210;28;20045;-96
2023/12/12 02:51:31;;;;;;;25.58;4.80;;;;;;;;;;5032885;28;20032;-96
2023/12/12 02:53:56;;;;;;;29.27;5.27;;;;;;;;;;5043979;28;20014;-94
2023/12/12 02:56:22;;;;;;;30.07;4.60;;;;;;;;;;5055129;28;20033;-96
2023/12/12 02:58:47;;;;;;;24.03;4.43;;;;;;;;;;5057604;28;20065;-95
2023/12/12 03:01:13;;;;;;;27.95;4.82;;;;;;;;;;5056741;28;20067;-95
2023/12/12 03:03:39;;;;;;;32.70;4.50;;;;;;;;;;5054366;28;20021;-95
2023/12/12 03:06:05;;;;;;;30.05;4.35;;;;;;;;;;5060176;28;20029;-96
2023/12/12 03:08:33;;;;;;;32.10;4.67;;;;;;;;;;5053343;28;20056;-96
2023/12/12 03:10:58;;;;;;;26.27;5.03;;;;;;;;;;5045434;22;20590;-96
2023/12/12 03:13:23;;;;;;;43.27;4.97;;;;;;;;;;5016389;28;20050;-95
2023/12/12 03:15:49;;;;;;;40.73;5.80;;;;;;;;;;5003011;28;20466;-96
2023/12/12 03:18:14;;;;;;;38.90;4.72;;;;;;;;;;4990297;28;20030;-96
2023/12/12 03:20:40;;;;;;;43.70;5.00;;;;;;;;;;5021855;28;20030;-96
2023/12/12 03:23:06;;;;;;;40.80;5.97;;;;;;;;;;5050920;22;20060;-96
2023/12/12 03:25:31;;;;;;;48.60;5.45;;;;;;;;;;5033406;28;20037;-95
2023/12/12 03:27:57;;;;;;;35.27;5.60;;;;;;;;;;5027324;28;20539;-95
2023/12/12 03:30:22;;;;;;;40.63;6.03;;;;;;;;;;5031084;28;20014;-96
2023/12/12 03:32:49;;;;;;;44.83;5.93;;;;;;;;;;5093392;22;20056;-95
2023/12/12 03:35:15;;;;;;;46.88;6.57;;;;;;;;;;5049400;28;20037;-95
2023/12/12 03:37:40;;;;;;;48.77;6.60;;;;;;;;;;5039588;28;20025;-95
2023/12/12 03:40:06;;;;;;;45.80;7.05;;;;;;;;;;5028917;28;20045;-96
2023/12/12 03:42:31;;;;;;;49.70;6.00;;;;;;;;;;5042242;28;20021;-95
2023/12/12 03:44:57;;;;;;;42.03;6.10;;;;;;;;;;5036410;28;19990;-96
2023/12/12 03:47:22;;;;;;;54.70;6.00;;;;;;;;;;5038469;28;20060;-96
2023/12/12 03:49:48;;;;;;;36.77;5.73;;;;;;;;;;5020729;28;20049;-95
2023/12/12 03:52:14;;;;;;;33.40;5.25;;;;;;;;;;5022533;28;20057;-96
2023/12/12 03:54:39;;;;;;;40.07;5.60;;;;;;;;;;5036534;28;20018;-96
2023/12/12 03:57:04;;;;;;;37.50;6.30;;;;;;;;;;5036333;28;20488;-96
2023/12/12 03:59:30;;;;;;;45.25;5.75;;;;;;;;;;5051897;28;20088;-96
2023/12/12 04:01:55;;;;;;;35.20;6.57;;;;;;;;;;5060210;28;20025;-96
2023/12/12 04:04:21;;;;;;;47.43;6.03;;;;;;;;;;5060040;28;20013;-96
2023/12/12 04:06:47;;;;;;;41.20;6.68;;;;;;;;;;5057759;28;20013;-96
2023/12/12 04:09:15;;;;;;;44.73;6.20;;;;;;;;;;5043324;28;20008;-96
2023/12/12 04:11:40;;;;;;;40.38;6.40;;;;;;;;;;5051838;28;20073;-96
2023/12/12 04:14:09;;;;;;;38.95;6.32;;;;;;;;;;5050906;23;20026;-96
2023/12/12 04:16:34;;;;;;;46.37;6.53;;;;;;;;;;5035771;28;20034;-96
2023/12/12 04:19:00;;;;;;;44.80;6.13;;;;;;;;;;5034686;28;20272;-96
2023/12/12 04:21:25;;;;;;;42.50;7.00;;;;;;;;;;5035555;28;20030;-96
2023/12/12 04:23:50;;;;;;;39.00;6.00;;;;;;;;;;5039215;28;20014;-96
2023/12/12 04:26:27;;;;;;;52.13;7.17;;;;;;;;;;5021726;28;20007;-96
2023/12/12 04:28:52;;;;;;;43.20;6.60;;;;;;;;;;5037463;28;20319;-96
2023/12/12 04:31:18;;;;;;;45.22;7.13;;;;;;;;;;5035670;28;20215;-96
2023/12/12 04:33:43;;;;;;;49.50;7.37;;;;;;;;;;5019599;28;20018;-96
2023/12/12 04:36:12;;;;;;;41.70;6.60;;;;;;;;;;5019574;28;20018;-94
2023/12/12 04:38:38;;;;;;;42.95;6.15;;;;;;;;;;5003546;28;20070;-96
2023/12/12 04:41:03;;;;;;;43.77;6.47;;;;;;;;;;5038611;28;20033;-96
2023/12/12 04:43:29;;;;;;;35.43;6.73;;;;;;;;;;5021920;28;20022;-96
2023/12/12 04:45:55;;;;;;;39.47;7.40;;;;;;;;;;5038863;28;20348;-96
2023/12/12 04:48:20;;;;;;;42.05;6.45;;;;;;;;;;5031882;28;20041;-96
2023/12/12 04:50:45;;;;;;;49.83;7.17;;;;;;;;;;5019835;28;20023;-96
2023/12/12 04:53:11;;;;;;;46.20;7.40;;;;;;;;;;5020104;28;20138;-96
2023/12/12 04:55:43;;;;;;;42.40;7.50;;;;;;;;;;5002292;28;20014;-95
2023/12/12 04:58:08;;;;;;;55.75;8.60;;;;;;;;;;5019435;28;20018;-96
2023/12/12 05:00:34;;;;;;;39.05;7.35;;;;;;;;;;5018984;28;20026;-96
2023/12/12 05:03:03;;;;;;;36.73;6.40;;;;;;;;;;5017466;28;20022;-95
2023/12/12 05:05:29;;;;;;;51.47;7.95;;;;;;;;;;5021864;28;20017;-94
2023/12/12 05:07:55;;;;;;;45.33;6.97;;;;;;;;;;5024027;28;20028;-96
2023/12/12 05:10:21;;;;;;;48.27;7.10;;;;;;;;;;5026353;28;20154;-94
2023/12/12 05:12:47;;;;;;;49.17;8.37;;;;;;;;;;5034002;28;20276;-96
2023/12/12 05:15:12;;;;;;;37.30;6.55;;;;;;;;;;5009125;28;20072;-96
2023/12/12 05:17:43;;;;;;;41.57;6.87;;;;;;;;;;4974373;28;20030;-96
2023/12/12 05:20:09;;;;;;;43.50;6.70;;;;;;;;;;4991682;28;20015;-96
2023/12/12 05:22:35;;;;;;;55.88;7.22;;;;;;;;;;4990586;28;20015;-96
2023/12/12 05:25:00;;;;;;;33.53;6.13;;;;;;;;;;4991482;28;20089;-96
2023/12/12 05:27:25;;;;;;;42.63;6.97;;;;;;;;;;4990146;28;20037;-96
2023/12/12 05:29:51;;;;;;;41.53;7.20;;;;;;;;;;5006346;28;20025;-96
2023/12/12 05:32:16;;;;;;;47.43;6.97;;;;;;;;;;5013596;28;20015;-96
2023/12/12 05:34:42;;;;;;;47.80;6.50;;;;;;;;;;5010302;28;20045;-96
2023/12/12 05:37:08;;;;;;;47.80;8.20;;;;;;;;;;5010765;28;20030;-96
2023/12/12 05:39:35;;;;;;;48.25;7.72;;;;;;;;;;5011021;28;20010;-94
2023/12/12 05:42:02;;;;;;;41.67;7.10;;;;;;;;;;4986565;28;20090;-96
2023/12/12 05:44:29;;;;;;;52.67;7.47;;;;;;;;;;4989756;28;20077;-96
2023/12/12 05:46:54;;;;;;;49.72;7.82;;;;;;;;;;5006888;28;20077;-96
2023/12/12 05:49:21;;;;;;;42.63;7.03;;;;;;;;;;5013192;28;20018;-96
2023/12/12 05:51:46;;;;;;;48.28;6.85;;;;;;;;;;5009639;28;20401;-96
2023/12/12 05:54:12;;;;;;;49.77;8.13;;;;;;;;;;5000972;28;20030;-96
2023/12/12 05:56:37;;;;;;;45.33;7.90;;;;;;;;;;4997674;28;20047;-96
2023/12/12 05:59:03;;;;;;;55.67;7.60;;;;;;;;;;4984685;28;20510;-96
2023/12/12 06:01:28;;;;;;;58.57;8.43;;;;;;;;;;5001556;28;20435;-96
2023/12/12 06:03:54;;;;;;;50.93;7.63;;;;;;;;;;5019748;28;20045;-96
2023/12/12 06:06:20;;;;;;;61.63;9.75;;;;;;;;;;5005226;28;20030;-96
2023/12/12 06:08:46;;;;;;;51.08;7.80;;;;;;;;;;4990545;28;20031;-96
2023/12/12 06:11:11;;;;;;;53.93;7.77;;;;;;;;;;5020035;28;20026;-96
2023/12/12 06:13:36;;;;;;;52.47;8.40;;;;;;;;;;5000914;28;20045;-96
2023/12/12 06:16:02;;;;;;;37.43;6.80;;;;;;;;;;4998145;28;20026;-96
2023/12/12 06:18:27;;;;;;;45.83;8.00;;;;;;;;;;5018462;28;20482;-96
2023/12/12 06:20:53;;;;;;;45.07;6.97;;;;;;;;;;5017917;28;20040;-96
2023/12/12 06:23:18;;;;;;;45.40;6.87;;;;;;;;;;5020863;28;20041;-96
2023/12/12 06:25:43;;;;;;;45.63;7.50;;;;;;;;;;5002716;28;20034;-96
2023/12/12 06:28:10;;;;;;;56.87;7.80;;;;;;;;;;5003331;28;20037;-96
2023/12/12 06:30:35;;;;;;;45.17;7.57;;;;;;;;;;4985040;28;20026;-96
2023/12/12 06:33:01;;;;;;;45.97;8.00;;;;;;;;;;5002605;28;20735;-96
2023/12/12 06:35:26;;;;;;;51.80;7.90;;;;;;;;;;4989953;28;20037;-94
2023/12/12 06:37:51;;;;;;;49.73;7.83;;;;;;;;;;5018321;28;20465;-95
2023/12/12 06:40:16;;;;;;;41.53;7.07;;;;;;;;;;5024463;28;20028;-95
2023/12/12 06:42:43;;;;;;;47.60;7.83;;;;;;;;;;5018421;28;20273;-93
2023/12/12 06:45:32;;;;;;;50.35;8.00;;;;;;;;;;5025687;28;20006;-93
2023/12/12 06:48:03;;;;;;;42.70;6.87;;;;;;;;;;5104490;22;20050;-96
2023/12/12 06:50:28;;;;;;;50.58;7.90;;;;;;;;;;5012680;28;20037;-91
2023/12/12 06:52:53;;;;;;;45.67;6.60;;;;;;;;;;4989972;28;20050;-88
2023/12/12 06:55:19;;;;;;;53.67;8.13;;;;;;;;;;5009601;28;20074;-92
2023/12/12 06:57:44;;;;;;;60.00;9.73;;;;;;;;;;4991936;28;20022;-93
2023/12/12 07:00:10;;;;;;;48.40;7.60;;;;;;;;;;4990737;28;20118;-92
2023/12/12 07:02:35;;;;;;;53.43;9.17;;;;;;;;;;4990448;28;20363;-91
2023/12/12 07:05:00;;;;;;;45.00;8.53;;;;;;;;;;4992267;28;20089;-92
2023/12/12 07:07:26;;;;;;;52.23;8.00;;;;;;;;;;4992929;28;20034;-92
2023/12/12 07:09:51;;;;;;;47.70;8.68;;;;;;;;;;4995408;28;20382;-91
2023/12/12 07:12:16;;;;;;;45.47;6.67;;;;;;;;;;5004910;28;20046;-91
2023/12/12 07:14:41;;;;;;;62.07;8.57;;;;;;;;;;4990965;28;20037;-92
2023/12/12 07:17:06;;;;;;;38.87;6.57;;;;;;;;;;4984618;28;20085;-92
2023/12/12 07:19:32;;;;;;;40.23;7.93;;;;;;;;;;5005932;28;20101;-91
2023/12/12 07:21:57;;;;;;;62.63;14.50;;;;;;;;;;4978054;28;20022;-91
2023/12/12 07:24:22;;;;;;;57.27;13.10;;;;;;;;;;4987706;28;20102;-92
2023/12/12 07:26:49;;;;;;;48.67;10.33;;;;;;;;;;4995491;28;20040;-92
2023/12/12 07:29:17;;;;;;;58.63;11.25;;;;;;;;;;5000970;28;20069;-91
2023/12/12 07:31:43;;;;;;;55.08;9.60;;;;;;;;;;5003853;28;20030;-94
2023/12/12 07:34:08;;;;;;;56.15;8.45;;;;;;;;;;4993270;28;20050;-91
2023/12/12 07:36:34;;;;;;;42.27;7.97;;;;;;;;;;4960188;28;20506;-91
2023/12/12 07:39:00;;;;;;;55.03;8.30;;;;;;;;;;4972139;28;20035;-91
2023/12/12 07:41:25;;;;;;;43.60;8.65;;;;;;;;;;4965802;28;20026;-90
2023/12/12 07:43:50;;;;;;;40.10;7.73;;;;;;;;;;4992197;28;20030;-89
2023/12/12 07:46:16;;;;;;;51.10;7.30;;;;;;;;;;4984846;28;20188;-90
2023/12/12 07:48:41;;;;;;;48.07;7.03;;;;;;;;;;4980028;28;20034;-90
2023/12/12 07:51:06;;;;;;;48.10;7.70;;;;;;;;;;4988988;28;20108;-90
2023/12/12 07:53:31;;;;;;;40.73;8.13;;;;;;;;;;4982929;28;20057;-90
2023/12/12 07:55:56;;;;;;;53.77;7.67;;;;;;;;;;4980974;28;20025;-90
2023/12/12 07:58:22;;;;;;;45.43;7.37;;;;;;;;;;4979847;28;20047;-90
2023/12/12 08:00:47;;;;;;;43.63;7.13;;;;;;;;;;4979932;28;20022;-90
2023/12/12 08:03:13;;;;;;;44.25;7.65;;;;;;;;;;4993255;28;20023;-90
2023/12/12 08:05:38;;;;;;;35.07;6.90;;;;;;;;;;4989028;28;20023;-90
2023/12/12 08:08:04;;;;;;;41.17;6.77;;;;;;;;;;4985953;28;20022;-90
2023/12/12 08:10:30;;;;;;;38.67;6.18;;;;;;;;;;4993792;28;20141;-90
2023/12/12 08:12:55;;;;;;;46.57;7.60;;;;;;;;;;4993675;28;20039;-90
2023/12/12 08:15:20;;;;;;;37.87;5.97;;;;;;;;;;4986274;28;20284;-93
2023/12/12 08:17:45;;;;;;;27.83;5.13;;;;;;;;;;4971488;28;20463;-84
2023/12/12 08:20:11;;;;;;;59.23;6.87;;;;;;;;;;4989360;28;20027;-83
2023/12/12 08:22:37;;;;;;;36.72;7.88;;;;;;;;;;4967081;28;20079;-84
2023/12/12 08:25:02;;;;;;;35.23;6.30;;;;;;;;;;4988140;28;20053;-83
2023/12/12 08:27:28;;;;;;;29.90;6.83;;;;;;;;;;4991757;28;20026;-83
2023/12/12 08:29:53;;;;;;;47.17;7.10;;;;;;;;;;4989683;28;20026;-84
2023/12/12 08:32:18;;;;;;;31.35;5.75;;;;;;;;;;4990356;28;20077;-83
2023/12/12 08:34:44;;;;;;;55.10;7.27;;;;;;;;;;4992299;28;20402;-83
2023/12/12 08:37:09;;;;;;;36.10;6.03;;;;;;;;;;4992360;28;20057;-84
2023/12/12 08:39:34;;;;;;;44.73;8.57;;;;;;;;;;4990615;28;20033;-83
2023/12/12 08:42:00;;;;;;;47.17;7.47;;;;;;;;;;4991178;28;20164;-83
2023/12/12 08:44:25;;;;;;;36.35;11.07;;;;;;;;;;4972861;28;20363;-84
2023/12/12 08:46:51;;;;;;;54.10;10.97;;;;;;;;;;4985617;28;20453;-85
2023/12/12 08:49:18;;;;;;;44.73;9.43;;;;;;;;;;4991596;28;20096;-85
2023/12/12 08:51:43;;;;;;;32.67;6.97;;;;;;;;;;4991000;28;20018;-84
2023/12/12 08:54:09;;;;;;;35.43;6.90;;;;;;;;;;4990416;28;20041;-84
2023/12/12 08:56:36;;;;;;;38.25;7.28;;;;;;;;;;4960942;28;20034;-86
2023/12/12 08:59:01;;;;;;;32.70;5.70;;;;;;;;;;4973397;28;20014;-85
2023/12/12 09:01:27;;;;;;;27.93;7.83;;;;;;;;;;4991107;28;20060;-85
2023/12/12 09:03:53;;;;;;;34.83;6.23;;;;;;;;;;4973825;28;20037;-86
2023/12/12 09:06:18;;;;;;;36.25;6.68;;;;;;;;;;4988485;28;20529;-85
2023/12/12 09:08:44;;;;;;;34.30;5.50;;;;;;;;;;4989600;28;20026;-85
2023/12/12 09:11:09;;;;;;;34.93;6.50;;;;;;;;;;4988572;28;20541;-85
2023/12/12 09:13:34;;;;;;;30.67;7.60;;;;;;;;;;4988214;28;20410;-84
2023/12/12 09:16:00;;;;;;;29.30;5.83;;;;;;;;;;4973765;28;20065;-85
2023/12/12 09:18:25;;;;;;;30.97;5.57;;;;;;;;;;4988891;28;20110;-85
2023/12/12 09:20:50;;;;;;;26.30;5.07;;;;;;;;;;4989967;28;20482;-85
2023/12/12 09:23:16;;;;;;;25.20;5.43;;;;;;;;;;4991901;28;20081;-85
2023/12/12 09:25:41;;;;;;;26.53;4.57;;;;;;;;;;4990945;28;20497;-85
2023/12/12 09:28:06;;;;;;;30.97;6.27;;;;;;;;;;4991355;28;20034;-85
2023/12/12 09:30:31;;;;;;;19.03;5.57;;;;;;;;;;4970142;28;20113;-85
2023/12/12 09:32:57;;;;;;;22.60;5.37;;;;;;;;;;4976512;28;20068;-86
2023/12/12 09:35:22;;;;;;;21.20;4.53;;;;;;;;;;4991938;28;20025;-85
2023/12/12 09:37:47;;;;;;;26.43;4.37;;;;;;;;;;4991028;28;20049;-85
2023/12/12 09:40:12;;;;;;;26.10;4.23;;;;;;;;;;4982592;28;20081;-86
2023/12/12 09:42:39;;;;;;;29.80;6.47;;;;;;;;;;4982801;28;20474;-86
2023/12/12 09:45:11;;;;;;;21.67;4.40;;;;;;;;;;4991655;28;20021;-85
2023/12/12 09:47:36;;;;;;;23.27;3.90;;;;;;;;;;4987567;28;20030;-85
2023/12/12 09:50:02;;;;;;;25.10;5.23;;;;;;;;;;4986009;28;20038;-85
2023/12/12 09:52:28;;;;;;;25.77;4.55;;;;;;;;;;4984302;28;20038;-85
2023/12/12 09:54:54;;;;;;;25.65;5.53;;;;;;;;;;4985043;28;20023;-86
2023/12/12 09:57:19;;;;;;;25.40;4.97;;;;;;;;;;4991369;28;20112;-86
2023/12/12 09:59:44;;;;;;;24.47;4.83;;;;;;;;;;4993889;28;20105;-86
2023/12/12 10:02:12;;;;;;;21.17;4.40;;;;;;;;;;4982836;28;20037;-85
2023/12/12 10:04:38;;;;;;;18.60;3.90;;;;;;;;;;4977002;28;20050;-85
2023/12/12 10:07:07;;;;;;;12.67;3.60;;;;;;;;;;4971902;28;20063;-85
2023/12/12 10:09:33;;;;;;;19.20;2.83;;;;;;;;;;4974664;28;20269;-85
2023/12/12 10:11:59;;;;;;;11.27;3.33;;;;;;;;;;4988538;28;20033;-85
2023/12/12 10:14:34;;;;;;;17.30;3.25;;;;;;;;;;4974571;28;20022;-85
2023/12/12 10:17:04;;;;;;;18.97;3.37;;;;;;;;;;4985996;28;20101;-87
2023/12/12 10:19:29;;;;;;;17.13;3.30;;;;;;;;;;4989616;28;20274;-86
2023/12/12 10:21:55;;;;;;;17.90;3.07;;;;;;;;;;4975694;28;20526;-86
2023/12/12 10:24:26;;;;;;;16.47;3.23;;;;;;;;;;4990180;28;20026;-86
2023/12/12 10:26:52;;;;;;;16.55;3.28;;;;;;;;;;4989972;28;20054;-87
2023/12/12 10:29:19;;;;;;;18.03;2.90;;;;;;;;;;4989381;28;20061;-86
2023/12/12 10:31:45;;;;;;;15.23;2.55;;;;;;;;;;4971090;28;20562;-86
2023/12/12 10:34:10;;;;;;;16.70;3.10;;;;;;;;;;4988082;28;20105;-86
2023/12/12 10:36:37;;;;;;;13.53;2.50;;;;;;;;;;4990020;28;20478;-85
2023/12/12 10:39:15;;;;;;;14.43;2.47;;;;;;;;;;4990165;28;20101;-85
2023/12/12 10:41:50;;;;;;;14.57;2.72;;;;;;;;;;4988464;28;20026;-85
2023/12/12 10:44:15;;;;;;;13.50;2.40;;;;;;;;;;4989136;28;20023;-86
2023/12/12 10:46:41;;;;;;;7.90;2.30;;;;;;;;;;4988939;28;20669;-86
2023/12/12 10:49:07;;;;;;;13.30;2.10;;;;;;;;;;4991485;28;20026;-86
2023/12/12 10:51:33;;;;;;;8.27;2.00;;;;;;;;;;4989125;28;20054;-86
2023/12/12 10:53:59;;;;;;;9.33;2.40;;;;;;;;;;4991134;28;20061;-85
2023/12/12 10:56:24;;;;;;;14.93;2.15;;;;;;;;;;4985660;28;20019;-86
2023/12/12 10:58:51;;;;;;;9.63;1.97;;;;;;;;;;4990162;28;20482;-86
2023/12/12 11:01:16;;;;;;;10.10;1.50;;;;;;;;;;4987220;28;20089;-85
2023/12/12 11:03:41;;;;;;;10.30;2.47;;;;;;;;;;4989968;28;20019;-87
2023/12/12 11:06:10;;;;;;;9.70;1.73;;;;;;;;;;4984546;28;20026;-86
2023/12/12 11:08:36;;;;;;;11.45;2.47;;;;;;;;;;4982559;28;20038;-85
2023/12/12 11:11:02;;;;;;;11.33;2.20;;;;;;;;;;4985329;28;20508;-85
2023/12/12 11:13:29;;;;;;;12.23;1.85;;;;;;;;;;4989210;28;20041;-85
2023/12/12 11:15:57;;;;;;;12.15;1.92;;;;;;;;;;4988820;28;20046;-85
2023/12/12 11:18:22;;;;;;;9.73;1.73;;;;;;;;;;4989488;28;20417;-85
2023/12/12 11:20:47;;;;;;;9.53;2.20;;;;;;;;;;4995344;28;20018;-84
2023/12/12 11:23:39;;;;;;;14.37;1.90;;;;;;;;;;4993968;28;20487;-84
2023/12/12 11:26:04;;;;;;;13.63;2.20;;;;;;;;;;4985302;28;20106;-85
2023/12/12 11:28:32;;;;;;;10.32;2.33;;;;;;;;;;4983993;28;20598;-85
2023/12/12 11:31:00;;;;;;;11.33;2.53;;;;;;;;;;4992943;28;20045;-85
2023/12/12 11:33:25;;;;;;;14.23;2.13;;;;;;;;;;4993718;28;20065;-84
2023/12/12 11:35:51;;;;;;;8.50;2.43;;;;;;;;;;4993942;28;20042;-84
2023/12/12 11:38:27;;;;;;;9.20;2.03;;;;;;;;;;4993414;28;20031;-84
2023/12/12 11:41:11;;;;;;;9.85;2.30;;;;;;;;;;4991865;28;20022;-85
2023/12/12 11:43:36;;;;;;;11.07;2.50;;;;;;;;;;4993187;28;20034;-85
2023/12/12 11:46:21;;;;;;;11.13;2.73;;;;;;;;;;4994486;28;20094;-85
2023/12/12 11:48:47;;;;;;;9.02;2.33;;;;;;;;;;4990719;28;20070;-85
2023/12/12 11:51:31;;;;;;;13.15;2.63;;;;;;;;;;4993216;28;20022;-84
2023/12/12 11:53:56;;;;;;;11.15;2.97;;;;;;;;;;4992589;28;20030;-84
2023/12/12 11:56:21;;;;;;;11.63;2.53;;;;;;;;;;4993505;28;20021;-84
2023/12/12 11:58:50;;;;;;;16.50;2.87;;;;;;;;;;4992474;28;20029;-84
2023/12/12 12:01:19;;;;;;;7.90;2.20;;;;;;;;;;4991861;28;20046;-84
2023/12/12 12:03:44;;;;;;;11.07;2.63;;;;;;;;;;4992271;28;20118;-84
2023/12/12 12:06:09;;;;;;;7.23;2.43;;;;;;;;;;4990900;28;20470;-84
2023/12/12 12:08:35;;;;;;;7.70;2.40;;;;;;;;;;4982259;28;20041;-84
2023/12/12 12:11:00;;;;;;;11.03;2.77;;;;;;;;;;4991067;28;20026;-84
2023/12/12 12:13:38;;;;;;;8.80;2.43;;;;;;;;;;4993095;28;20030;-84
2023/12/12 12:16:04;;;;;;;9.13;2.80;;;;;;;;;;4991586;28;20018;-84
2023/12/12 12:18:29;;;;;;;11.82;2.75;;;;;;;;;;4991804;28;20029;-84
2023/12/12 12:20:54;;;;;;;12.70;2.70;;;;;;;;;;4991425;28;20571;-84
2023/12/12 12:23:20;;;;;;;7.17;2.17;;;;;;;;;;4971584;28;20027;-84
2023/12/12 12:25:46;;;;;;;11.27;2.53;;;;;;;;;;4988969;28;20030;-84
2023/12/12 12:28:12;;;;;;;11.40;2.60;;;;;;;;;;4992007;28;20039;-84
2023/12/12 12:30:44;;;;;;;9.73;2.63;;;;;;;;;;4990382;28;20628;-84
2023/12/12 12:33:09;;;;;;;8.20;2.07;;;;;;;;;;4980897;28;20025;-84
2023/12/12 12:35:35;;;;;;;7.03;2.35;;;;;;;;;;4994238;28;20018;-84
2023/12/12 12:38:01;;;;;;;7.97;1.90;;;;;;;;;;4990040;28;20045;-84
2023/12/12 12:40:35;;;;;;;5.82;2.35;;;;;;;;;;4991652;28;20018;-84
2023/12/12 12:43:04;;;;;;;11.27;2.53;;;;;;;;;;4994287;28;20041;-84
2023/12/12 12:45:29;;;;;;;5.47;2.50;;;;;;;;;;4992502;28;20014;-84
2023/12/12 12:47:54;;;;;;;7.20;2.13;;;;;;;;;;4992181;28;20466;-84
2023/12/12 12:50:20;;;;;;;6.50;2.27;;;;;;;;;;4984782;28;20601;-84
2023/12/12 12:52:45;;;;;;;10.43;2.30;;;;;;;;;;4991756;28;20824;-84
2023/12/12 12:55:10;;;;;;;7.63;2.40;;;;;;;;;;4974161;28;20073;-84
2023/12/12 12:57:36;;;;;;;6.57;2.23;;;;;;;;;;4974128;28;20034;-84
2023/12/12 13:00:02;;;;;;;8.10;2.90;;;;;;;;;;4989753;28;20028;-84
2023/12/12 13:02:27;;;;;;;8.07;2.60;;;;;;;;;;4956213;28;20101;-84
2023/12/12 13:04:54;;;;;;;4.27;2.20;;;;;;;;;;4987449;28;20497;-84
2023/12/12 13:07:21;;;;;;;7.85;2.25;;;;;;;;;;4990042;28;20023;-84
2023/12/12 13:09:47;;;;;;;8.80;2.17;;;;;;;;;;4973833;28;20100;-85
2023/12/12 13:12:12;;;;;;;7.13;2.60;;;;;;;;;;4991441;28;20014;-85
2023/12/12 13:14:37;;;;;;;7.57;2.60;;;;;;;;;;4991531;28;20030;-85
2023/12/12 13:17:03;;;;;;;10.13;2.50;;;;;;;;;;4990811;28;20033;-84
2023/12/12 13:19:28;;;;;;;6.32;2.70;;;;;;;;;;4974263;28;20025;-85
2023/12/12 13:21:54;;;;;;;6.07;2.57;;;;;;;;;;4990189;28;20018;-85
2023/12/12 13:24:20;;;;;;;8.93;2.43;;;;;;;;;;4991751;28;20061;-84
2023/12/12 13:26:46;;;;;;;6.63;2.10;;;;;;;;;;4990770;28;20080;-84
2023/12/12 13:29:12;;;;;;;10.32;2.50;;;;;;;;;;4986524;28;20023;-84
2023/12/12 13:31:37;;;;;;;6.10;2.40;;;;;;;;;;4986680;28;20022;-84
2023/12/12 13:34:04;;;;;;;6.40;2.30;;;;;;;;;;4990925;28;20042;-84
2023/12/12 13:36:30;;;;;;;6.47;2.30;;;;;;;;;;4988622;28;20030;-84
2023/12/12 13:38:55;;;;;;;9.68;2.70;;;;;;;;;;4974070;28;20025;-84
2023/12/12 13:41:20;;;;;;;6.60;2.63;;;;;;;;;;4990973;28;20553;-85
2023/12/12 13:43:46;;;;;;;5.23;2.90;;;;;;;;;;4973753;28;20477;-84
2023/12/12 13:46:11;;;;;;;6.10;2.60;;;;;;;;;;4990927;28;20101;-84
2023/12/12 13:48:36;;;;;;;10.02;2.80;;;;;;;;;;4990394;28;20042;-85
2023/12/12 13:51:03;;;;;;;9.87;3.30;;;;;;;;;;4988898;28;20022;-85
2023/12/12 13:53:28;;;;;;;7.05;2.50;;;;;;;;;;4973235;28;20041;-85
2023/12/12 13:55:53;;;;;;;8.87;3.00;;;;;;;;;;4990814;28;20034;-85
2023/12/12 13:58:20;;;;;;;6.90;2.63;;;;;;;;;;4990652;28;20168;-84
2023/12/12 14:00:45;;;;;;;8.73;3.42;;;;;;;;;;4990444;28;20433;-85
2023/12/12 14:03:11;;;;;;;7.90;2.93;;;;;;;;;;4993734;28;20029;-85
2023/12/12 14:05:36;;;;;;;8.00;3.70;;;;;;;;;;4990417;28;20068;-84
2023/12/12 14:08:01;;;;;;;7.77;3.27;;;;;;;;;;4990099;28;20041;-85
2023/12/12 14:10:26;;;;;;;6.23;3.40;;;;;;;;;;4992066;28;20026;-85
2023/12/12 14:12:52;;;;;;;9.20;3.07;;;;;;;;;;4991201;28;20513;-85
2023/12/12 14:15:17;;;;;;;6.67;3.50;;;;;;;;;;4973968;28;20296;-85
2023/12/12 14:17:42;;;;;;;13.87;4.63;;;;;;;;;;4990744;28;20034;-86
2023/12/12 14:20:08;;;;;;;9.30;4.40;;;;;;;;;;4990668;28;20033;-85
2023/12/12 14:22:33;;;;;;;6.20;4.50;;;;;;;;;;4991352;28;20022;-85
2023/12/12 14:24:59;;;;;;;11.13;4.25;;;;;;;;;;4990920;28;20023;-85
2023/12/12 14:27:24;;;;;;;6.37;4.00;;;;;;;;;;4989182;28;20449;-85
2023/12/12 14:29:49;;;;;;;8.15;3.50;;;;;;;;;;4989641;28;20018;-85
2023/12/12 14:32:17;;;;;;;8.50;3.13;;;;;;;;;;4989611;28;20050;-84
2023/12/12 14:34:42;;;;;;;6.93;3.60;;;;;;;;;;4990785;28;20011;-84